Time;durP1;ratioP1;P1;durP2;ratioP2;P2;SDS_P1;SDS_P2;PMS_P1;PMS_P2;Temp;Humidity;BMP_temperature;BMP_pressure;BME280_temperature;BME280_humidity;BME280_pressure;Samples;Min_cycle;Max_cycle;Signal;HPM_P1;HPM_P2
2023/01/25 00:02:18;;;;;;;15.93;8.35;;;;;;;3.43;80.16;99869.06;5032908;28;20111;-81
2023/01/25 00:04:44;;;;;;;18.58;8.30;;;;;;;3.10;80.56;99871.47;5050750;28;20037;-81
2023/01/25 00:07:09;;;;;;;16.48;8.13;;;;;;;3.05;81.35;99876.97;5050892;28;20040;-81
2023/01/25 00:09:35;;;;;;;17.27;8.85;;;;;;;3.13;82.42;99868.69;5051063;28;20530;-81
2023/01/25 00:12:00;;;;;;;17.88;9.30;;;;;;;3.27;82.35;99862.50;5051544;28;20128;-81
2023/01/25 00:14:26;;;;;;;15.50;8.60;;;;;;;3.33;82.00;99868.06;5051167;28;20087;-81
2023/01/25 00:16:52;;;;;;;15.25;8.38;;;;;;;3.44;82.05;99872.50;5050725;28;20116;-81
2023/01/25 00:19:18;;;;;;;18.27;9.70;;;;;;;3.50;81.49;99866.84;5048280;28;20036;-81
2023/01/25 00:21:43;;;;;;;18.23;8.77;;;;;;;3.31;81.44;99863.94;5050785;28;20041;-81
2023/01/25 00:24:10;;;;;;;17.40;8.90;;;;;;;3.28;81.36;99859.78;5051235;28;20133;-81
2023/01/25 00:26:38;;;;;;;18.73;9.15;;;;;;;3.34;81.52;99856.75;5050423;28;20024;-81
2023/01/25 00:29:03;;;;;;;19.50;9.27;;;;;;;3.33;81.23;99860.28;5050863;28;20093;-81
2023/01/25 00:31:32;;;;;;;17.35;8.73;;;;;;;3.15;80.99;99851.22;5049912;28;20029;-81
2023/01/25 00:34:27;;;;;;;17.27;9.25;;;;;;;3.20;81.86;99847.38;5049968;28;20473;-81
2023/01/25 00:37:00;;;;;;;16.05;8.52;;;;;;;3.15;81.15;99852.06;5050452;28;20025;-81
2023/01/25 00:39:26;;;;;;;19.25;8.43;;;;;;;3.23;81.78;99843.72;5049499;28;20131;-81
2023/01/25 00:41:52;;;;;;;17.15;8.30;;;;;;;3.18;81.20;99846.66;5049271;28;20666;-80
2023/01/25 00:44:18;;;;;;;17.20;8.82;;;;;;;3.25;81.33;99846.22;5050363;28;20111;-81
2023/01/25 00:46:43;;;;;;;21.52;9.07;;;;;;;3.16;81.52;99835.56;5050730;28;20045;-81
2023/01/25 00:49:22;;;;;;;17.95;8.70;;;;;;;3.33;81.62;99844.72;5035104;28;20059;-81
2023/01/25 00:51:49;;;;;;;16.13;8.93;;;;;;;3.40;81.48;99839.91;5046485;28;20477;-81
2023/01/25 00:54:15;;;;;;;16.30;9.20;;;;;;;3.42;81.55;99838.06;5049232;28;20064;-80
2023/01/25 00:56:41;;;;;;;16.25;8.32;;;;;;;3.40;81.33;99829.53;5050488;28;20033;-81
2023/01/25 00:59:06;;;;;;;15.95;8.98;;;;;;;3.51;81.27;99836.56;5050292;28;20048;-81
2023/01/25 01:01:34;;;;;;;15.45;8.93;;;;;;;3.39;80.65;99828.72;5050024;28;20045;-81
2023/01/25 01:03:59;;;;;;;15.32;8.27;;;;;;;3.29;81.07;99837.28;5049304;28;20033;-80
2023/01/25 01:06:25;;;;;;;15.15;8.02;;;;;;;3.16;81.02;99824.38;5050176;28;20175;-81
2023/01/25 01:08:50;;;;;;;16.90;8.50;;;;;;;3.04;81.03;99830.44;5049611;28;20086;-81
2023/01/25 01:11:16;;;;;;;18.25;8.32;;;;;;;3.11;81.48;99822.09;5048371;28;20448;-81
2023/01/25 01:13:41;;;;;;;15.48;8.40;;;;;;;3.14;81.35;99834.03;5050331;28;20036;-81
2023/01/25 01:16:10;;;;;;;15.02;8.20;;;;;;;3.28;81.58;99839.03;5048959;28;20025;-81
2023/01/25 01:18:44;;;;;;;16.80;9.20;;;;;;;3.38;81.26;99837.44;5048423;28;20041;-81
2023/01/25 01:21:11;;;;;;;15.10;8.20;;;;;;;3.34;80.71;99830.81;5046467;28;20080;-81
2023/01/25 01:23:38;;;;;;;17.08;8.68;;;;;;;3.36;80.48;99841.94;5050259;28;20076;-80
2023/01/25 01:26:07;;;;;;;17.20;8.55;;;;;;;3.33;80.50;99834.34;5049206;28;20037;-80
2023/01/25 01:28:38;;;;;;;14.90;7.93;;;;;;;3.23;80.16;99831.59;5050209;28;20036;-81
2023/01/25 01:31:12;;;;;;;15.93;8.32;;;;;;;3.31;80.37;99841.44;5049804;28;20075;-81
2023/01/25 01:33:38;;;;;;;15.90;7.63;;;;;;;3.39;80.43;99833.91;5048615;28;20044;-81
2023/01/25 01:36:16;;;;;;;15.40;8.60;;;;;;;3.29;79.59;99827.72;5049765;28;20465;-81
2023/01/25 01:38:42;;;;;;;18.00;8.75;;;;;;;3.29;79.37;99838.09;5047512;28;20033;-80
2023/01/25 01:41:09;;;;;;;14.75;7.95;;;;;;;3.30;79.56;99838.91;5048735;28;20060;-81
2023/01/25 01:43:35;;;;;;;14.77;8.27;;;;;;;3.36;79.97;99834.16;5049390;28;20040;-81
2023/01/25 01:46:10;;;;;;;15.27;8.63;;;;;;;3.42;80.16;99838.88;5049765;28;20070;-81
2023/01/25 01:48:48;;;;;;;14.85;8.55;;;;;;;3.50;79.47;99833.13;5046904;28;20029;-81
2023/01/25 01:51:22;;;;;;;15.52;8.65;;;;;;;3.45;79.25;99833.47;5048098;28;20561;-81
2023/01/25 01:54:25;;;;;;;16.65;8.57;;;;;;;3.50;79.82;99835.72;5048965;28;20073;-81
2023/01/25 01:56:59;;;;;;;17.15;8.75;;;;;;;3.44;79.59;99833.59;5047350;28;20108;-81
2023/01/25 01:59:33;;;;;;;15.77;8.30;;;;;;;3.39;79.33;99836.50;5048675;28;20045;-81
2023/01/25 02:01:59;;;;;;;15.82;8.13;;;;;;;3.34;79.62;99837.78;5047736;28;20040;-81
2023/01/25 02:04:27;;;;;;;14.18;8.25;;;;;;;3.30;79.71;99826.81;5048551;28;20048;-81
2023/01/25 02:07:13;;;;;;;17.15;7.65;;;;;;;2.98;79.52;99821.31;5049405;28;20037;-81
2023/01/25 02:09:39;;;;;;;16.75;8.75;;;;;;;3.02;80.56;99824.53;5047509;28;20116;-81
2023/01/25 02:12:06;;;;;;;13.90;7.93;;;;;;;3.10;80.91;99817.03;5031066;28;20174;-81
2023/01/25 02:14:33;;;;;;;15.38;8.40;;;;;;;3.21;81.04;99832.66;5048388;28;20650;-81
2023/01/25 02:17:00;;;;;;;15.05;7.85;;;;;;;3.32;80.62;99826.69;5049000;28;20045;-81
2023/01/25 02:19:53;;;;;;;16.92;7.60;;;;;;;3.33;80.27;99829.16;5046346;28;20041;-81
2023/01/25 02:22:30;;;;;;;15.52;8.23;;;;;;;3.33;80.12;99828.34;5047318;28;20044;-81
2023/01/25 02:25:07;;;;;;;13.68;8.23;;;;;;;3.19;79.86;99827.56;5047612;28;20087;-81
2023/01/25 02:27:37;;;;;;;17.23;9.30;;;;;;;3.22;80.31;99827.34;5048845;28;20044;-81
2023/01/25 02:30:04;;;;;;;14.97;7.83;;;;;;;3.13;79.74;99819.41;5030559;28;20028;-81
2023/01/25 02:32:31;;;;;;;17.15;8.43;;;;;;;3.14;80.00;99816.69;5048109;28;20346;-81
2023/01/25 02:34:56;;;;;;;18.83;9.13;;;;;;;3.15;80.38;99817.53;5047729;28;20162;-81
2023/01/25 02:37:22;;;;;;;14.50;8.35;;;;;;;3.21;80.94;99811.91;5046767;28;20490;-81
2023/01/25 02:39:48;;;;;;;15.02;8.10;;;;;;;3.35;80.68;99819.50;5048272;28;20036;-80
2023/01/25 02:42:13;;;;;;;17.33;8.70;;;;;;;3.41;79.89;99832.03;5048877;28;20065;-81
2023/01/25 02:44:41;;;;;;;15.90;7.35;;;;;;;3.40;79.53;99829.53;5047449;28;20108;-80
2023/01/25 02:47:08;;;;;;;14.15;7.30;;;;;;;3.34;78.78;99820.44;5046856;28;20044;-81
2023/01/25 02:49:37;;;;;;;16.58;8.38;;;;;;;3.18;78.99;99818.16;5049170;28;20036;-81
2023/01/25 02:52:04;;;;;;;15.98;7.85;;;;;;;3.29;80.28;99824.31;5030825;28;20111;-80
2023/01/25 02:54:29;;;;;;;15.00;7.90;;;;;;;3.27;79.80;99823.59;5030727;28;20045;-81
2023/01/25 02:56:55;;;;;;;16.20;8.00;;;;;;;3.23;79.82;99818.63;5048255;28;20112;-81
2023/01/25 02:59:22;;;;;;;15.55;7.88;;;;;;;3.25;79.77;99826.31;5046683;28;20043;-81
2023/01/25 03:01:49;;;;;;;13.60;7.65;;;;;;;3.18;79.46;99817.31;5046707;28;20076;-81
2023/01/25 03:04:14;;;;;;;17.40;8.30;;;;;;;3.04;79.72;99825.25;5048298;28;20067;-81
2023/01/25 03:06:40;;;;;;;14.25;7.78;;;;;;;2.94;80.08;99818.13;5048765;28;20037;-81
2023/01/25 03:09:09;;;;;;;14.32;7.80;;;;;;;2.80;80.31;99815.69;5047837;28;20029;-81
2023/01/25 03:11:35;;;;;;;15.25;7.68;;;;;;;2.84;80.86;99814.53;5048190;28;20369;-81
2023/01/25 03:14:01;;;;;;;17.23;8.48;;;;;;;2.81;80.87;99801.78;5030567;28;20036;-81
2023/01/25 03:16:27;;;;;;;14.55;7.55;;;;;;;2.89;81.09;99804.69;5051981;28;20112;-81
2023/01/25 03:18:53;;;;;;;13.32;8.00;;;;;;;2.77;80.83;99800.34;5033971;28;20045;-80
2023/01/25 03:21:21;;;;;;;16.15;8.63;;;;;;;2.81;80.98;99801.78;5051091;28;20025;-81
2023/01/25 03:23:53;;;;;;;13.48;7.63;;;;;;;2.87;80.97;99801.34;5052132;28;20044;-81
2023/01/25 03:26:21;;;;;;;16.17;8.02;;;;;;;2.80;80.07;99797.53;5050673;28;20616;-81
2023/01/25 03:28:47;;;;;;;18.23;8.48;;;;;;;2.93;80.90;99793.13;5051014;28;20033;-81
2023/01/25 03:31:16;;;;;;;16.05;8.48;;;;;;;3.04;81.22;99794.97;5051355;28;20041;-81
2023/01/25 03:33:42;;;;;;;16.42;8.50;;;;;;;3.11;80.69;99787.56;5032927;28;20033;-81
2023/01/25 03:36:09;;;;;;;15.18;7.95;;;;;;;3.10;80.32;99789.34;5051846;28;20167;-81
2023/01/25 03:38:35;;;;;;;17.45;8.40;;;;;;;3.03;79.71;99795.91;5051803;28;20111;-81
2023/01/25 03:41:02;;;;;;;15.63;8.00;;;;;;;2.99;79.72;99783.25;5050664;28;20033;-81
2023/01/25 03:43:28;;;;;;;15.60;7.85;;;;;;;2.99;80.19;99780.69;5051436;28;20039;-81
2023/01/25 03:45:57;;;;;;;15.02;8.38;;;;;;;2.98;80.65;99787.63;5050513;28;20044;-81
2023/01/25 03:48:24;;;;;;;16.38;9.30;;;;;;;3.02;80.37;99781.28;5033888;28;20025;-81
2023/01/25 03:50:54;;;;;;;15.95;8.45;;;;;;;2.92;79.86;99778.53;5051386;28;20036;-81
2023/01/25 03:53:30;;;;;;;15.75;7.70;;;;;;;2.91;80.22;99776.88;5050785;28;20170;-82
2023/01/25 03:55:59;;;;;;;14.10;7.32;;;;;;;2.91;80.32;99782.06;5051284;28;20037;-81
2023/01/25 03:58:25;;;;;;;15.55;8.30;;;;;;;2.98;80.36;99791.97;5050805;28;20041;-81
2023/01/25 04:00:55;;;;;;;17.50;8.27;;;;;;;2.94;80.09;99787.03;5051148;28;20048;-80
2023/01/25 04:03:20;;;;;;;13.60;8.13;;;;;;;3.02;80.43;99788.25;5032960;28;20044;-80
2023/01/25 04:05:46;;;;;;;13.90;7.28;;;;;;;2.86;79.39;99773.78;5051371;28;20037;-81
2023/01/25 04:08:13;;;;;;;15.00;8.20;;;;;;;2.90;80.17;99780.41;5049603;28;20112;-81
2023/01/25 04:10:38;;;;;;;14.57;7.07;;;;;;;2.74;80.10;99774.66;5049882;28;20040;-81
2023/01/25 04:13:04;;;;;;;15.48;7.85;;;;;;;2.77;80.27;99773.63;5051456;28;20380;-80
2023/01/25 04:15:29;;;;;;;13.43;7.95;;;;;;;2.78;80.37;99773.50;5051416;28;20033;-81
2023/01/25 04:17:55;;;;;;;16.75;8.13;;;;;;;2.85;80.42;99766.13;5050858;28;20365;-81
2023/01/25 04:20:20;;;;;;;15.80;7.90;;;;;;;2.86;80.09;99763.41;5048378;28;20044;-81
2023/01/25 04:22:46;;;;;;;18.35;8.55;;;;;;;2.93;80.32;99756.84;5050471;28;20420;-81
2023/01/25 04:25:12;;;;;;;15.18;7.35;;;;;;;2.93;80.24;99749.06;5050422;28;20041;-81
2023/01/25 04:27:37;;;;;;;15.60;7.82;;;;;;;2.93;79.85;99737.88;5050180;28;20041;-81
2023/01/25 04:30:04;;;;;;;15.30;8.13;;;;;;;2.91;79.87;99730.22;5050519;28;20400;-81
2023/01/25 04:32:29;;;;;;;16.52;8.25;;;;;;;2.99;80.33;99732.25;5050116;28;20041;-81
2023/01/25 04:34:55;;;;;;;17.92;8.95;;;;;;;3.07;80.24;99723.94;5050661;28;20439;-81
2023/01/25 04:37:20;;;;;;;16.13;8.68;;;;;;;3.12;79.90;99724.41;5030571;28;20035;-81
2023/01/25 04:39:45;;;;;;;15.82;8.70;;;;;;;3.09;79.77;99727.22;5050238;28;20477;-81
2023/01/25 04:42:11;;;;;;;13.98;6.82;;;;;;;3.03;79.42;99714.72;5051113;28;20496;-81
2023/01/25 04:44:36;;;;;;;12.38;6.97;;;;;;;3.11;79.79;99718.38;5049515;28;20441;-81
2023/01/25 04:47:02;;;;;;;16.25;7.68;;;;;;;3.13;79.62;99718.31;5050661;28;20455;-81
2023/01/25 04:49:28;;;;;;;17.10;8.15;;;;;;;3.16;79.57;99718.06;5050546;28;20032;-81
2023/01/25 04:51:53;;;;;;;13.35;7.20;;;;;;;3.07;78.94;99718.75;5050271;28;20040;-81
2023/01/25 04:54:19;;;;;;;15.63;8.55;;;;;;;3.06;79.37;99711.88;5050207;28;20437;-81
2023/01/25 04:56:44;;;;;;;15.02;7.47;;;;;;;3.07;79.31;99718.75;5049656;28;20496;-81
2023/01/25 04:59:10;;;;;;;14.30;7.38;;;;;;;3.04;78.92;99716.38;5050503;28;20451;-81
2023/01/25 05:01:35;;;;;;;12.88;6.97;;;;;;;2.97;78.65;99707.41;5050211;28;20041;-81
2023/01/25 05:04:01;;;;;;;14.63;7.68;;;;;;;2.91;79.50;99709.50;5050217;28;20064;-81
2023/01/25 05:06:26;;;;;;;16.05;7.65;;;;;;;2.98;79.82;99712.47;5049927;28;20036;-81
2023/01/25 05:08:52;;;;;;;14.35;7.50;;;;;;;3.01;79.27;99711.44;5050016;28;20124;-80
2023/01/25 05:11:17;;;;;;;15.27;7.28;;;;;;;3.04;79.20;99718.97;5050262;28;20044;-80
2023/01/25 05:13:43;;;;;;;12.48;6.75;;;;;;;3.01;78.48;99706.25;5031968;28;20033;-81
2023/01/25 05:16:08;;;;;;;14.02;7.15;;;;;;;3.05;78.69;99705.06;5050037;28;20082;-81
2023/01/25 05:18:34;;;;;;;14.63;7.38;;;;;;;3.10;78.88;99713.31;5050058;28;20040;-81
2023/01/25 05:20:59;;;;;;;11.35;6.20;;;;;;;2.95;78.06;99710.94;5047374;28;20037;-81
2023/01/25 05:23:24;;;;;;;13.45;6.47;;;;;;;2.92;78.50;99710.31;5049662;28;20507;-81
2023/01/25 05:28:34;;;;;;;12.55;6.25;;;;;;;2.91;78.58;99693.13;5049510;28;20426;-81
2023/01/25 05:31:03;;;;;;;12.30;6.35;;;;;;;3.00;78.37;99713.19;5049099;28;20033;-81
2023/01/25 05:33:29;;;;;;;13.18;6.53;;;;;;;3.00;78.18;99701.97;5045768;28;20036;-81
2023/01/25 05:35:55;;;;;;;13.30;6.40;;;;;;;3.05;78.06;99702.47;5049516;28;20549;-81
2023/01/25 05:38:21;;;;;;;8.88;5.63;;;;;;;2.96;77.76;99706.56;5048975;28;20041;-81
2023/01/25 05:40:46;;;;;;;12.65;6.20;;;;;;;2.82;77.84;99709.31;5048628;28;20108;-81
2023/01/25 05:43:11;;;;;;;12.18;6.28;;;;;;;2.81;78.23;99703.31;5049491;28;20041;-80
2023/01/25 05:45:37;;;;;;;11.18;6.18;;;;;;;2.87;78.73;99699.44;5049712;28;20029;-81
2023/01/25 05:48:02;;;;;;;14.15;7.20;;;;;;;2.89;78.98;99701.00;5049570;28;20041;-81
2023/01/25 05:50:28;;;;;;;11.13;5.93;;;;;;;2.86;78.48;99696.03;5048572;28;20041;-81
2023/01/25 05:52:53;;;;;;;13.48;6.72;;;;;;;2.92;78.82;99694.75;5048385;28;20550;-81
2023/01/25 05:55:19;;;;;;;13.38;6.75;;;;;;;2.93;78.45;99686.88;5048912;28;20128;-81
2023/01/25 05:57:44;;;;;;;14.98;7.10;;;;;;;2.83;78.40;99693.69;5049132;28;20036;-81
2023/01/25 06:00:11;;;;;;;14.80;7.43;;;;;;;2.78;78.98;99688.00;5048903;28;20491;-81
2023/01/25 06:02:37;;;;;;;13.23;6.32;;;;;;;2.70;78.80;99692.91;5048433;28;20511;-81
2023/01/25 06:05:04;;;;;;;13.77;6.65;;;;;;;2.83;79.77;99696.28;5047821;28;20032;-81
2023/01/25 06:07:35;;;;;;;13.15;7.28;;;;;;;2.83;79.24;99691.09;5046394;28;20037;-80
2023/01/25 06:10:02;;;;;;;14.00;7.22;;;;;;;2.93;79.39;99686.88;5048085;28;20056;-81
2023/01/25 06:12:27;;;;;;;14.23;6.38;;;;;;;3.00;78.99;99679.50;5031031;28;20064;-81
2023/01/25 06:14:53;;;;;;;14.95;7.75;;;;;;;2.94;78.58;99683.38;5049023;28;20128;-80
2023/01/25 06:17:18;;;;;;;14.30;7.80;;;;;;;2.98;78.71;99685.72;5030579;28;20030;-80
2023/01/25 06:19:44;;;;;;;15.32;7.60;;;;;;;2.93;78.82;99684.28;5045672;28;20477;-81
2023/01/25 06:22:09;;;;;;;13.27;7.35;;;;;;;2.94;79.19;99680.78;5030879;28;20056;-81
2023/01/25 06:24:35;;;;;;;13.73;6.82;;;;;;;2.86;78.49;99677.91;5049234;28;20033;-81
2023/01/25 06:27:00;;;;;;;15.15;7.25;;;;;;;2.86;79.18;99687.44;5048731;28;20032;-81
2023/01/25 06:29:26;;;;;;;11.23;6.32;;;;;;;2.86;79.41;99683.06;5047151;28;20040;-81
2023/01/25 06:31:51;;;;;;;12.27;7.10;;;;;;;2.83;79.36;99685.09;5048280;28;20090;-80
2023/01/25 06:34:17;;;;;;;15.82;7.85;;;;;;;2.80;79.37;99683.53;5048598;28;20040;-80
2023/01/25 06:36:42;;;;;;;13.38;6.93;;;;;;;2.93;79.74;99689.47;5048190;28;20120;-81
2023/01/25 06:39:08;;;;;;;13.93;7.88;;;;;;;3.03;79.60;99681.03;5047026;28;20025;-81
2023/01/25 06:41:34;;;;;;;14.45;8.15;;;;;;;3.02;79.21;99685.38;5048282;28;20067;-81
2023/01/25 06:43:59;;;;;;;15.60;7.32;;;;;;;3.06;78.61;99680.78;5030433;28;20116;-81
2023/01/25 06:46:25;;;;;;;16.42;8.18;;;;;;;3.06;78.67;99680.78;5047128;28;20102;-81
2023/01/25 06:48:51;;;;;;;14.63;7.03;;;;;;;3.10;78.61;99682.22;5047942;28;20487;-81
2023/01/25 06:51:17;;;;;;;12.68;7.47;;;;;;;3.09;78.19;99681.41;5038030;28;20090;-81
2023/01/25 06:53:45;;;;;;;13.77;7.25;;;;;;;3.10;78.46;99675.25;5046541;28;20049;-81
2023/01/25 06:56:17;;;;;;;13.38;7.22;;;;;;;3.05;78.05;99677.38;5032332;28;20042;-81
2023/01/25 06:58:43;;;;;;;14.98;7.30;;;;;;;3.07;78.78;99677.28;5050150;28;20048;-81
2023/01/25 07:01:25;;;;;;;14.82;7.22;;;;;;;3.14;78.79;99678.47;5050481;28;20033;-81
2023/01/25 07:03:56;;;;;;;16.50;7.70;;;;;;;3.06;78.24;99680.78;5049623;28;20468;-81
2023/01/25 07:06:22;;;;;;;16.00;8.00;;;;;;;2.98;78.23;99678.75;5050121;28;20037;-81
2023/01/25 07:08:47;;;;;;;14.68;7.35;;;;;;;2.75;79.09;99677.03;5051561;28;20122;-81
2023/01/25 07:11:14;;;;;;;13.82;7.28;;;;;;;2.63;79.56;99681.31;5051540;28;20041;-81
2023/01/25 07:13:44;;;;;;;11.38;6.53;;;;;;;2.51;80.06;99689.97;5051201;28;20735;-80
2023/01/25 07:16:16;;;;;;;15.73;7.37;;;;;;;2.62;80.66;99683.09;5050139;28;20464;-80
2023/01/25 07:18:42;;;;;;;14.90;7.60;;;;;;;2.68;80.13;99676.63;5050403;28;20033;-80
2023/01/25 07:21:17;;;;;;;15.50;7.78;;;;;;;2.58;79.73;99673.91;5046312;28;20036;-80
2023/01/25 07:23:43;;;;;;;16.65;8.20;;;;;;;2.68;80.32;99676.63;5049288;28;20037;-80
2023/01/25 07:26:23;;;;;;;15.98;8.05;;;;;;;2.51;80.38;99669.25;5049564;28;20112;-81
2023/01/25 07:28:49;;;;;;;14.80;7.10;;;;;;;2.69;80.43;99673.94;5049744;28;20780;-81
2023/01/25 07:31:17;;;;;;;15.00;7.85;;;;;;;2.78;79.83;99669.88;5050889;28;20163;-81
2023/01/25 07:33:46;;;;;;;13.75;7.53;;;;;;;2.81;79.83;99666.22;5050961;28;20106;-80
2023/01/25 07:36:11;;;;;;;14.40;7.13;;;;;;;2.82;79.81;99673.91;5050708;28;20068;-80
2023/01/25 07:38:37;;;;;;;13.20;7.18;;;;;;;2.71;79.49;99673.00;5050407;28;20060;-80
2023/01/25 07:41:03;;;;;;;15.32;7.18;;;;;;;2.62;79.59;99674.50;5051160;28;20060;-81
2023/01/25 07:43:29;;;;;;;16.45;7.95;;;;;;;2.64;80.18;99670.03;5048928;28;20060;-81
2023/01/25 07:46:01;;;;;;;14.60;7.28;;;;;;;2.71;80.36;99666.06;5051410;28;20126;-81
2023/01/25 07:48:27;;;;;;;18.10;8.18;;;;;;;2.70;80.24;99674.78;5050290;28;20130;-80
2023/01/25 07:51:10;;;;;;;14.18;7.25;;;;;;;2.69;80.01;99678.28;5035262;28;20032;-81
2023/01/25 07:53:41;;;;;;;14.65;7.45;;;;;;;2.72;80.21;99682.44;5029149;28;20044;-81
2023/01/25 07:56:10;;;;;;;12.63;6.85;;;;;;;2.66;79.60;99683.69;5049983;28;20029;-81
2023/01/25 07:58:36;;;;;;;13.30;7.28;;;;;;;2.74;80.08;99686.56;5048513;28;20480;-81
2023/01/25 08:01:10;;;;;;;16.10;7.53;;;;;;;2.80;79.56;99680.94;5049062;28;20040;-81
2023/01/25 08:03:37;;;;;;;13.32;7.22;;;;;;;2.88;79.59;99683.81;5049977;28;20037;-81
2023/01/25 08:06:04;;;;;;;13.82;7.47;;;;;;;3.00;79.61;99671.72;5050317;28;20060;-81
2023/01/25 08:08:35;;;;;;;16.05;7.70;;;;;;;2.90;78.64;99673.31;5049669;28;20037;-81
2023/01/25 08:11:12;;;;;;;15.07;8.00;;;;;;;2.90;78.59;99681.09;5049824;28;20025;-80
2023/01/25 08:13:39;;;;;;;15.73;7.85;;;;;;;2.78;78.68;99675.03;5050055;28;20476;-80
2023/01/25 08:16:05;;;;;;;15.52;7.47;;;;;;;2.81;79.43;99689.53;5032538;28;20408;-80
2023/01/25 08:18:31;;;;;;;15.15;7.95;;;;;;;2.78;79.49;99693.19;5050501;28;20090;-80
2023/01/25 08:20:58;;;;;;;13.65;7.45;;;;;;;2.73;79.36;99679.72;5047087;28;20033;-79
2023/01/25 08:23:24;;;;;;;16.25;8.07;;;;;;;2.83;79.65;99691.09;5049627;28;20114;-80
2023/01/25 08:25:49;;;;;;;13.63;8.02;;;;;;;2.81;79.62;99672.22;5047295;28;20032;-80
2023/01/25 08:28:15;;;;;;;14.15;8.13;;;;;;;2.93;80.83;99676.50;5049367;28;20041;-80
2023/01/25 08:30:41;;;;;;;14.95;7.75;;;;;;;2.91;79.64;99672.38;5050666;28;20033;-80
2023/01/25 08:33:06;;;;;;;13.55;7.38;;;;;;;3.03;79.92;99676.66;5050097;28;20037;-80
2023/01/25 08:35:34;;;;;;;14.85;7.93;;;;;;;3.03;79.69;99673.25;5049453;28;20021;-80
2023/01/25 08:37:59;;;;;;;17.67;9.20;;;;;;;2.86;78.87;99670.13;5049529;28;20086;-80
2023/01/25 08:40:25;;;;;;;19.13;9.55;;;;;;;2.96;79.54;99665.09;5050306;28;20044;-80
2023/01/25 08:42:50;;;;;;;21.42;9.05;;;;;;;2.98;79.67;99665.81;5049796;28;20061;-80
2023/01/25 08:45:16;;;;;;;17.42;8.73;;;;;;;2.79;79.05;99652.53;5050415;28;20029;-80
2023/01/25 08:47:41;;;;;;;14.70;7.97;;;;;;;2.93;79.61;99660.94;5050276;28;20123;-80
2023/01/25 08:50:08;;;;;;;15.38;7.43;;;;;;;2.82;79.01;99652.31;5049271;28;20461;-80
2023/01/25 08:52:33;;;;;;;16.75;7.72;;;;;;;2.94;79.93;99657.44;5050355;28;20113;-80
2023/01/25 08:54:59;;;;;;;15.65;8.60;;;;;;;2.93;78.96;99655.75;5043644;28;21156;-80
2023/01/25 08:57:25;;;;;;;13.80;7.40;;;;;;;3.01;78.90;99654.41;5049606;28;20038;-80
2023/01/25 08:59:51;;;;;;;15.20;8.07;;;;;;;3.07;79.38;99656.53;5049504;28;20557;-80
2023/01/25 09:02:18;;;;;;;15.32;7.90;;;;;;;3.05;79.31;99645.44;5049554;28;20028;-80
2023/01/25 09:04:43;;;;;;;18.25;8.25;;;;;;;3.02;78.32;99643.09;5049714;28;20041;-80
2023/01/25 09:07:09;;;;;;;14.90;8.00;;;;;;;2.85;77.98;99639.97;5044569;28;20054;-80
2023/01/25 09:09:35;;;;;;;15.15;8.30;;;;;;;2.88;78.58;99647.53;5028824;28;20052;-80
2023/01/25 09:12:00;;;;;;;13.98;7.78;;;;;;;2.94;79.40;99644.47;5028963;28;20362;-80
2023/01/25 09:14:26;;;;;;;16.35;7.95;;;;;;;2.98;79.04;99646.84;5048602;28;20092;-80
2023/01/25 09:16:52;;;;;;;17.35;9.15;;;;;;;3.03;79.24;99642.13;5046568;28;20033;-80
2023/01/25 09:19:17;;;;;;;14.07;7.82;;;;;;;3.05;78.42;99640.25;5045956;28;20086;-80
2023/01/25 09:21:43;;;;;;;14.40;7.25;;;;;;;3.02;78.97;99635.31;5049097;28;20056;-80
2023/01/25 09:24:09;;;;;;;14.18;7.65;;;;;;;3.06;78.76;99647.09;5049428;28;20048;-81
2023/01/25 09:26:39;;;;;;;20.92;9.07;;;;;;;3.05;79.33;99645.44;5048465;28;20121;-80
2023/01/25 09:29:06;;;;;;;15.57;8.48;;;;;;;2.97;78.51;99640.00;5049186;28;20032;-80
2023/01/25 09:31:32;;;;;;;16.55;8.40;;;;;;;2.90;78.38;99632.69;5048803;28;20424;-80
2023/01/25 09:33:58;;;;;;;15.30;8.27;;;;;;;2.88;78.68;99626.78;5047724;28;20033;-80
2023/01/25 09:36:24;;;;;;;14.40;7.03;;;;;;;2.81;78.51;99625.56;5048967;28;20553;-80
2023/01/25 09:38:49;;;;;;;15.52;8.50;;;;;;;2.86;79.26;99613.09;5047232;28;20075;-80
2023/01/25 09:42:06;;;;;;;17.77;8.15;;;;;;;2.90;78.78;99630.09;5048943;28;20094;-80
2023/01/25 09:45:13;;;;;;;17.10;8.25;;;;;;;2.99;79.27;99631.16;4978986;28;20037;-80
2023/01/25 09:47:58;;;;;;;17.88;8.20;;;;;;;3.02;79.36;99632.72;5047658;28;20039;-80
2023/01/25 09:50:44;;;;;;;16.15;7.95;;;;;;;3.09;79.32;99628.72;5047918;28;20078;-80
2023/01/25 09:53:39;;;;;;;14.80;8.02;;;;;;;3.06;78.02;99628.94;5047746;28;20029;-80
2023/01/25 09:56:29;;;;;;;16.88;9.00;;;;;;;3.15;78.61;99623.09;5026416;28;20074;-80
2023/01/25 09:59:02;;;;;;;19.08;9.15;;;;;;;3.15;78.43;99623.09;5047485;28;20040;-80
2023/01/25 10:01:45;;;;;;;17.00;8.27;;;;;;;3.15;77.69;99623.91;5048671;28;20060;-80
2023/01/25 10:04:20;;;;;;;14.57;7.80;;;;;;;3.07;77.71;99615.88;5047503;28;20075;-80
2023/01/25 10:06:52;;;;;;;16.52;8.60;;;;;;;3.08;78.78;99608.94;5048276;28;20068;-80
2023/01/25 10:09:49;;;;;;;13.73;7.47;;;;;;;3.10;78.77;99609.63;5048197;28;20100;-80
2023/01/25 10:12:17;;;;;;;14.93;8.75;;;;;;;3.21;78.88;99617.44;5047600;28;20036;-80
2023/01/25 10:14:43;;;;;;;17.23;8.15;;;;;;;3.11;77.85;99603.50;5047952;28;20111;-80
2023/01/25 10:17:40;;;;;;;14.15;8.20;;;;;;;3.08;78.01;99608.94;5048237;28;20112;-80
2023/01/25 10:20:35;;;;;;;14.20;8.10;;;;;;;3.06;78.14;99613.38;5044561;28;20039;-80
2023/01/25 10:23:28;;;;;;;15.77;7.75;;;;;;;3.08;77.75;99611.53;5047041;28;20033;-80
2023/01/25 10:26:08;;;;;;;15.50;7.70;;;;;;;3.01;77.77;99618.09;5046724;28;20622;-80
2023/01/25 10:28:46;;;;;;;18.25;8.30;;;;;;;2.99;78.02;99609.59;5047727;28;20037;-80
2023/01/25 10:31:19;;;;;;;13.52;7.80;;;;;;;3.08;78.41;99617.53;5046652;28;20677;-80
2023/01/25 10:33:47;;;;;;;17.40;9.05;;;;;;;3.12;77.98;99607.75;5047036;28;20055;-80
2023/01/25 10:36:23;;;;;;;17.08;8.98;;;;;;;3.15;78.00;99603.16;5048649;28;20118;-80
2023/01/25 10:38:48;;;;;;;20.75;11.20;;;;;;;3.20;78.24;99592.44;5047411;28;20033;-80
2023/01/25 10:41:31;;;;;;;20.13;9.68;;;;;;;3.17;77.55;99600.44;5046948;28;20025;-80
2023/01/25 10:47:00;;;;;;;17.58;9.25;;;;;;;2.98;76.87;99584.63;5047440;28;20432;-80
2023/01/25 10:49:46;;;;;;;25.95;11.32;;;;;;;2.97;77.01;99577.81;5047383;28;20075;-80
2023/01/25 10:52:18;;;;;;;19.83;9.52;;;;;;;3.11;78.04;99572.38;5046131;28;20067;-80
2023/01/25 10:54:44;;;;;;;19.90;10.93;;;;;;;3.12;77.43;99571.44;5045724;28;20061;-80
2023/01/25 10:57:21;;;;;;;16.33;8.90;;;;;;;3.12;77.33;99561.06;5044552;28;20039;-80
2023/01/25 10:59:51;;;;;;;14.88;8.45;;;;;;;3.03;76.83;99565.19;5045476;28;20036;-80
2023/01/25 11:02:34;;;;;;;14.88;8.75;;;;;;;2.97;77.40;99551.88;5046555;28;20040;-80
2023/01/25 11:05:18;;;;;;;15.23;8.57;;;;;;;3.05;77.39;99546.94;5044955;28;20456;-80
2023/01/25 11:07:47;;;;;;;17.23;8.23;;;;;;;3.08;77.42;99544.13;5045608;28;20037;-80
2023/01/25 11:10:36;;;;;;;15.88;8.85;;;;;;;3.09;77.29;99545.78;5045925;28;20029;-80
2023/01/25 11:13:14;;;;;;;18.13;9.43;;;;;;;3.15;77.93;99538.34;5047327;28;20052;-80
2023/01/25 11:15:45;;;;;;;18.95;9.75;;;;;;;3.01;77.25;99537.75;5045538;28;20045;-80
2023/01/25 11:18:32;;;;;;;15.48;8.52;;;;;;;3.06;77.56;99533.88;5045655;28;20082;-80
2023/01/25 11:21:18;;;;;;;13.35;7.43;;;;;;;2.98;76.80;99537.97;5045111;28;20082;-80
2023/01/25 11:24:07;;;;;;;16.75;8.73;;;;;;;2.90;76.80;99523.84;5046279;28;20484;-80
2023/01/25 11:26:35;;;;;;;14.80;7.93;;;;;;;2.91;77.60;99522.06;5043885;28;20496;-80
2023/01/25 11:29:10;;;;;;;15.73;8.63;;;;;;;3.01;78.31;99524.81;5044090;28;20056;-80
2023/01/25 11:31:36;;;;;;;18.70;8.32;;;;;;;3.02;77.43;99523.84;5045824;28;20032;-80
2023/01/25 11:34:02;;;;;;;19.58;9.20;;;;;;;3.06;77.23;99513.13;5046676;28;20043;-80
2023/01/25 11:36:46;;;;;;;17.08;8.38;;;;;;;3.11;77.12;99505.81;5047591;28;20408;-80
2023/01/25 11:39:36;;;;;;;13.25;8.27;;;;;;;3.15;77.17;99503.81;5050507;28;20041;-80
2023/01/25 11:42:57;;;;;;;14.55;7.82;;;;;;;3.19;76.83;99489.69;5049788;28;20473;-80
2023/01/25 11:45:44;;;;;;;15.82;8.15;;;;;;;3.35;77.18;99490.13;5051529;28;20051;-80
2023/01/25 11:48:27;;;;;;;13.73;8.52;;;;;;;3.35;76.68;99490.13;5049417;28;20607;-80
2023/01/25 11:51:07;;;;;;;17.02;8.60;;;;;;;3.40;76.73;99482.00;5049350;28;20029;-80
2023/01/25 11:53:47;;;;;;;15.32;8.30;;;;;;;3.46;76.75;99477.16;5048068;28;20459;-80